Time;durP1;ratioP1;P1;durP2;ratioP2;P2;SDS_P1;SDS_P2;PMS_P1;PMS_P2;Temp;Humidity;BMP_temperature;BMP_pressure;BME280_temperature;BME280_humidity;BME280_pressure;Samples;Min_cycle;Max_cycle;Signal;HPM_P1;HPM_P2
2024/03/13 00:00:46;;;;;;;15.20;11.60;;;9.60;99.90;;;;;;2077273;28;20028;-64
2024/03/13 00:01:53;;;;;;;13.98;10.43;;;9.60;99.90;;;;;;2076407;28;20029;-64
2024/03/13 00:02:53;;;;;;;16.20;11.55;;;9.60;99.90;;;;;;2077026;28;20037;-64
2024/03/13 00:03:54;;;;;;;15.43;11.43;;;9.60;99.90;;;;;;2075119;28;20026;-64
2024/03/13 00:04:55;;;;;;;15.00;11.48;;;9.60;99.90;;;;;;2077741;28;20057;-63
2024/03/13 00:05:56;;;;;;;14.85;10.80;;;9.70;99.90;;;;;;2077531;28;20026;-64
2024/03/13 00:06:56;;;;;;;14.90;10.70;;;9.60;99.90;;;;;;2078927;28;20049;-63
2024/03/13 00:07:57;;;;;;;14.57;10.88;;;9.60;99.90;;;;;;2077896;28;20168;-64
2024/03/13 00:08:59;;;;;;;13.05;10.73;;;9.70;99.90;;;;;;2075811;28;20014;-63
2024/03/13 00:10:01;;;;;;;17.42;11.65;;;9.60;99.90;;;;;;2077180;28;20501;-64
2024/03/13 00:11:01;;;;;;;14.95;10.40;;;9.70;99.90;;;;;;2075846;28;20021;-64
2024/03/13 00:12:03;;;;;;;13.85;10.77;;;9.70;99.90;;;;;;2076280;28;20132;-64
2024/03/13 00:13:04;;;;;;;15.15;11.15;;;9.70;99.90;;;;;;2075337;28;20034;-64
2024/03/13 00:14:05;;;;;;;13.63;10.48;;;9.70;99.90;;;;;;2078676;28;20029;-64
2024/03/13 00:15:06;;;;;;;15.57;10.93;;;9.70;99.90;;;;;;2076816;28;20033;-64
2024/03/13 00:16:07;;;;;;;15.18;10.93;;;9.70;99.90;;;;;;2076153;28;20026;-64
2024/03/13 00:17:09;;;;;;;14.60;10.90;;;9.70;99.90;;;;;;2076480;28;20030;-64
2024/03/13 00:18:10;;;;;;;14.77;10.45;;;9.70;99.90;;;;;;2077669;28;20072;-64
2024/03/13 00:19:10;;;;;;;14.30;10.20;;;9.70;99.90;;;;;;2076621;28;20107;-65
2024/03/13 00:20:11;;;;;;;14.45;10.25;;;9.70;99.90;;;;;;2080435;28;20034;-64
2024/03/13 00:21:12;;;;;;;16.80;11.13;;;9.80;99.90;;;;;;2076029;28;20029;-64
2024/03/13 00:22:19;;;;;;;15.90;10.98;;;9.80;99.90;;;;;;2076420;28;20479;-64
2024/03/13 00:23:20;;;;;;;15.07;10.30;;;9.80;99.90;;;;;;2075499;28;20582;-64
2024/03/13 00:24:20;;;;;;;12.45;10.15;;;9.80;99.90;;;;;;2074887;28;20575;-64
2024/03/13 00:25:21;;;;;;;13.95;10.45;;;9.80;99.90;;;;;;2078072;28;20036;-63
2024/03/13 00:26:21;;;;;;;17.30;10.35;;;9.80;99.90;;;;;;2075754;28;20021;-63
2024/03/13 00:27:22;;;;;;;13.45;9.95;;;9.80;99.90;;;;;;2074763;28;20029;-64
2024/03/13 00:28:23;;;;;;;13.65;10.80;;;9.80;99.90;;;;;;2075737;28;20025;-65
2024/03/13 00:29:25;;;;;;;13.30;10.45;;;9.80;99.90;;;;;;2076528;28;20037;-63
2024/03/13 00:30:25;;;;;;;12.95;10.25;;;9.90;99.90;;;;;;2075248;28;20013;-64
2024/03/13 00:31:27;;;;;;;13.60;10.88;;;9.90;99.90;;;;;;2077823;28;20032;-64
2024/03/13 00:32:28;;;;;;;15.93;10.93;;;9.90;99.90;;;;;;2076522;28;20018;-64
2024/03/13 00:33:29;;;;;;;13.70;10.35;;;9.90;99.90;;;;;;2078003;28;20025;-64
2024/03/13 00:34:30;;;;;;;14.15;11.07;;;9.90;99.90;;;;;;2076529;28;20017;-63
2024/03/13 00:35:30;;;;;;;14.70;11.07;;;9.90;99.90;;;;;;2076967;28;20078;-63
2024/03/13 00:36:31;;;;;;;15.32;10.57;;;9.90;99.90;;;;;;2078399;28;20026;-64
2024/03/13 00:37:31;;;;;;;14.45;11.32;;;9.90;99.90;;;;;;2076895;28;20025;-63
2024/03/13 00:38:33;;;;;;;14.00;10.63;;;9.90;99.90;;;;;;2074505;28;20455;-64
2024/03/13 00:39:34;;;;;;;14.55;10.48;;;9.90;99.90;;;;;;2078015;28;20024;-64
2024/03/13 00:40:37;;;;;;;11.52;9.88;;;9.90;99.90;;;;;;2076975;28;20021;-64
2024/03/13 00:41:38;;;;;;;15.05;10.52;;;9.90;99.90;;;;;;2078513;28;20382;-64
2024/03/13 00:42:39;;;;;;;14.63;11.38;;;9.90;99.90;;;;;;2080838;28;20175;-65
2024/03/13 00:43:41;;;;;;;13.07;9.85;;;9.90;99.90;;;;;;2077569;28;20048;-64
2024/03/13 00:44:42;;;;;;;12.80;9.43;;;10.00;99.90;;;;;;2077668;28;20050;-64
2024/03/13 00:45:43;;;;;;;14.35;10.48;;;10.00;99.90;;;;;;2078403;28;20038;-66
2024/03/13 00:46:43;;;;;;;14.80;10.27;;;10.00;99.90;;;;;;2077843;28;20026;-64
2024/03/13 00:47:44;;;;;;;15.75;11.13;;;10.00;99.90;;;;;;2077265;28;20090;-64
2024/03/13 00:48:44;;;;;;;13.38;10.73;;;10.00;99.90;;;;;;2076288;28;20402;-64
2024/03/13 00:49:45;;;;;;;14.20;10.98;;;10.00;99.90;;;;;;2077976;28;20026;-63
2024/03/13 00:50:48;;;;;;;13.25;9.82;;;9.90;99.90;;;;;;2076104;28;20030;-63
2024/03/13 00:51:51;;;;;;;14.00;10.95;;;9.90;99.90;;;;;;2077088;28;20026;-65
2024/03/13 00:52:53;;;;;;;12.65;9.77;;;9.90;99.90;;;;;;2075143;28;20026;-64
2024/03/13 00:53:54;;;;;;;13.30;10.43;;;9.90;99.90;;;;;;2069988;28;20509;-65
2024/03/13 00:54:54;;;;;;;14.95;11.43;;;9.90;99.90;;;;;;2069109;28;20505;-65
2024/03/13 00:55:58;;;;;;;14.20;10.65;;;9.90;99.90;;;;;;2079615;28;20033;-64
2024/03/13 00:56:59;;;;;;;14.00;9.77;;;9.90;99.90;;;;;;2077946;28;20033;-64
2024/03/13 00:58:01;;;;;;;12.63;10.15;;;9.90;99.90;;;;;;2078902;28;20426;-63
2024/03/13 00:59:02;;;;;;;14.18;10.20;;;9.90;99.90;;;;;;2079378;28;20116;-64
2024/03/13 01:00:04;;;;;;;14.15;10.18;;;9.90;99.90;;;;;;2078494;28;20029;-63
2024/03/13 01:01:05;;;;;;;13.35;10.02;;;10.00;99.90;;;;;;2080567;28;20029;-66
2024/03/13 01:02:08;;;;;;;13.73;10.35;;;10.00;99.90;;;;;;2079386;28;20084;-64
2024/03/13 01:03:09;;;;;;;12.10;9.98;;;10.00;99.90;;;;;;2078533;28;20037;-64
2024/03/13 01:04:11;;;;;;;13.52;10.63;;;10.00;99.90;;;;;;2078132;28;20036;-65
2024/03/13 01:05:13;;;;;;;14.85;10.90;;;10.00;99.90;;;;;;2077328;28;20358;-64
2024/03/13 01:06:14;;;;;;;13.32;10.48;;;10.00;99.90;;;;;;2077790;28;20460;-64
2024/03/13 01:07:15;;;;;;;12.07;9.32;;;10.00;99.90;;;;;;2077930;28;20018;-64
2024/03/13 01:08:16;;;;;;;12.57;9.55;;;10.00;99.90;;;;;;2078124;28;20026;-64
2024/03/13 01:09:19;;;;;;;13.35;10.40;;;10.00;99.90;;;;;;2076963;28;20025;-65
2024/03/13 01:10:24;;;;;;;13.52;10.07;;;10.00;99.90;;;;;;2079010;28;20035;-64
2024/03/13 01:11:25;;;;;;;14.75;10.18;;;10.00;99.90;;;;;;2077786;28;20022;-64
2024/03/13 01:12:26;;;;;;;12.82;10.07;;;10.00;99.90;;;;;;2078107;28;21011;-64
2024/03/13 01:13:27;;;;;;;13.05;10.05;;;10.10;99.90;;;;;;2077059;28;20053;-64
2024/03/13 01:14:27;;;;;;;14.18;10.63;;;10.00;99.90;;;;;;2080137;28;20026;-63
2024/03/13 01:15:28;;;;;;;13.95;9.30;;;10.10;99.90;;;;;;2079091;28;20056;-64
2024/03/13 01:16:29;;;;;;;14.32;10.23;;;10.10;99.90;;;;;;2078511;28;20029;-65
2024/03/13 01:17:29;;;;;;;13.43;9.93;;;10.10;99.90;;;;;;2077334;28;20042;-64
2024/03/13 01:18:30;;;;;;;14.35;10.20;;;10.10;99.90;;;;;;2079401;28;20057;-64
2024/03/13 01:19:33;;;;;;;12.77;10.48;;;10.10;99.90;;;;;;2079015;28;20017;-64
2024/03/13 01:20:33;;;;;;;12.90;9.77;;;10.10;99.90;;;;;;2078442;28;20018;-64
2024/03/13 01:21:34;;;;;;;12.55;9.48;;;10.10;99.90;;;;;;2077267;28;20045;-64
2024/03/13 01:22:34;;;;;;;13.05;9.55;;;10.10;99.90;;;;;;2078676;28;20068;-65
2024/03/13 01:23:37;;;;;;;14.98;9.93;;;10.10;99.90;;;;;;2077518;28;20078;-64
2024/03/13 01:24:38;;;;;;;14.35;10.35;;;10.10;99.90;;;;;;2077078;28;20017;-64
2024/03/13 01:25:41;;;;;;;12.85;10.13;;;10.10;99.90;;;;;;2070577;28;20037;-65
2024/03/13 01:26:42;;;;;;;13.23;9.57;;;10.10;99.90;;;;;;2073955;28;20105;-64
2024/03/13 01:27:42;;;;;;;13.70;9.95;;;10.10;99.90;;;;;;2071234;28;20026;-64
2024/03/13 01:28:43;;;;;;;11.80;9.70;;;10.10;99.90;;;;;;2072811;28;20022;-64
2024/03/13 01:29:47;;;;;;;15.27;10.32;;;10.10;99.90;;;;;;2079322;28;20140;-64
2024/03/13 01:30:48;;;;;;;11.77;9.50;;;10.20;99.90;;;;;;2079558;28;20017;-64
2024/03/13 01:31:49;;;;;;;11.85;9.73;;;10.20;99.90;;;;;;2078216;28;20121;-64
2024/03/13 01:32:49;;;;;;;12.80;9.75;;;10.10;99.90;;;;;;2076991;28;20058;-64
2024/03/13 01:33:50;;;;;;;15.75;9.85;;;10.10;99.90;;;;;;2079098;28;20038;-65
2024/03/13 01:34:50;;;;;;;14.73;10.05;;;10.10;99.90;;;;;;2079426;28;20146;-64
2024/03/13 01:35:51;;;;;;;13.00;10.25;;;10.10;99.90;;;;;;2077390;28;20429;-64
2024/03/13 01:38:11;;;;;;;12.85;9.20;;;10.10;99.90;;;;;;2078902;28;20026;-64
2024/03/13 01:39:12;;;;;;;13.32;10.23;;;10.10;99.90;;;;;;2077823;28;20026;-64
2024/03/13 01:40:19;;;;;;;11.90;9.02;;;10.10;99.90;;;;;;2076413;28;20025;-64
2024/03/13 01:55:13;;;;;;;12.65;9.55;;;10.10;99.90;;;;;;2077596;28;20148;-70
2024/03/13 01:56:26;;;;;;;12.15;9.13;;;10.10;99.90;;;;;;2079452;28;20021;-70
2024/03/13 01:57:32;;;;;;;11.32;9.05;;;10.10;99.90;;;;;;2078062;28;20025;-70
2024/03/13 01:58:42;;;;;;;11.70;8.50;;;10.10;99.90;;;;;;2079058;28;20068;-69
2024/03/13 02:02:27;;;;;;;14.55;9.30;;;10.10;99.90;;;;;;2075091;28;20494;-70
2024/03/13 02:03:28;;;;;;;12.02;8.55;;;10.10;99.90;;;;;;2078924;28;20128;-70
2024/03/13 02:04:28;;;;;;;12.10;9.50;;;10.10;99.90;;;;;;2079541;28;20037;-70
2024/03/13 02:05:29;;;;;;;13.48;8.90;;;10.10;99.90;;;;;;2077589;28;20049;-70
2024/03/13 02:06:31;;;;;;;13.70;10.20;;;10.20;99.90;;;;;;2074615;28;20025;-69
2024/03/13 02:07:32;;;;;;;13.00;9.30;;;10.20;99.90;;;;;;2078184;28;20076;-64
2024/03/13 02:08:32;;;;;;;9.60;8.40;;;10.20;99.90;;;;;;2076331;28;20666;-64
2024/03/13 02:09:33;;;;;;;12.57;8.90;;;10.20;99.90;;;;;;2079413;28;20742;-64
2024/03/13 02:10:34;;;;;;;10.48;8.23;;;10.20;99.90;;;;;;2079192;28;20439;-65
2024/03/13 02:11:37;;;;;;;12.82;9.00;;;10.20;99.90;;;;;;2072082;28;20054;-64
2024/03/13 02:12:37;;;;;;;11.35;8.80;;;10.20;99.90;;;;;;2073256;28;20021;-63
2024/03/13 02:13:41;;;;;;;11.90;8.88;;;10.20;99.90;;;;;;2077817;28;20033;-64
2024/03/13 02:14:42;;;;;;;10.48;7.78;;;10.20;99.90;;;;;;2079121;28;20056;-64
2024/03/13 02:15:44;;;;;;;12.32;9.23;;;10.20;99.90;;;;;;2077816;28;20116;-64
2024/03/13 02:16:51;;;;;;;11.73;8.90;;;10.20;99.90;;;;;;2077000;28;20156;-64
2024/03/13 02:17:54;;;;;;;11.60;8.60;;;10.30;99.90;;;;;;2076311;28;20532;-64
2024/03/13 02:18:56;;;;;;;11.20;8.88;;;10.20;99.90;;;;;;2078931;28;20053;-64
2024/03/13 02:19:57;;;;;;;10.95;8.55;;;10.20;99.90;;;;;;2070011;28;20041;-64
2024/03/13 02:21:01;;;;;;;11.10;8.57;;;10.30;99.90;;;;;;2070882;28;20037;-66
2024/03/13 02:22:04;;;;;;;11.45;8.55;;;10.30;99.90;;;;;;2079488;28;20025;-64
2024/03/13 02:23:05;;;;;;;12.20;8.48;;;10.30;99.90;;;;;;2079600;28;20025;-64
2024/03/13 02:24:06;;;;;;;11.25;8.60;;;10.30;99.90;;;;;;2078943;28;20223;-64
2024/03/13 02:25:08;;;;;;;11.07;8.32;;;10.30;99.90;;;;;;2075481;28;20457;-64
2024/03/13 02:26:08;;;;;;;11.52;9.02;;;10.30;99.90;;;;;;2077061;28;20453;-64
2024/03/13 02:27:10;;;;;;;10.02;8.05;;;10.30;99.90;;;;;;2080046;28;20025;-64
2024/03/13 02:28:10;;;;;;;10.27;8.27;;;10.30;99.90;;;;;;2077708;28;20376;-65
2024/03/13 02:29:13;;;;;;;11.80;8.88;;;10.30;99.90;;;;;;2074682;28;20029;-64
2024/03/13 02:30:14;;;;;;;10.68;8.15;;;10.30;99.90;;;;;;2078593;28;20017;-64
2024/03/13 02:31:14;;;;;;;11.82;8.63;;;10.30;99.90;;;;;;2076741;28;20026;-65
2024/03/13 02:32:15;;;;;;;9.55;8.10;;;10.30;99.90;;;;;;2078961;28;20065;-65
2024/03/13 02:33:15;;;;;;;9.82;8.10;;;10.30;99.90;;;;;;2081609;28;20033;-64
2024/03/13 02:34:18;;;;;;;12.35;9.05;;;10.40;99.90;;;;;;2076457;28;20453;-65
2024/03/13 02:35:19;;;;;;;10.90;8.30;;;10.40;99.90;;;;;;2078354;28;20389;-63
2024/03/13 02:36:19;;;;;;;10.20;7.75;;;10.40;99.90;;;;;;2076045;28;20395;-65
2024/03/13 02:37:20;;;;;;;11.68;8.40;;;10.30;99.90;;;;;;2079100;28;20057;-64
2024/03/13 02:38:20;;;;;;;10.00;8.50;;;10.40;99.90;;;;;;2077889;28;20041;-65
2024/03/13 02:39:21;;;;;;;10.43;8.52;;;10.40;99.90;;;;;;2079571;28;20060;-65
2024/03/13 02:40:22;;;;;;;8.88;7.95;;;10.40;99.90;;;;;;2080259;28;20041;-64
2024/03/13 02:41:23;;;;;;;9.82;7.55;;;10.30;99.90;;;;;;2081549;28;20030;-64
2024/03/13 02:42:23;;;;;;;10.50;8.02;;;10.40;99.90;;;;;;2076648;28;20061;-64
2024/03/13 02:43:24;;;;;;;9.55;8.10;;;10.40;99.90;;;;;;2076647;28;20029;-64
2024/03/13 02:44:25;;;;;;;9.35;8.02;;;10.40;99.90;;;;;;2079253;28;20033;-67
2024/03/13 02:45:25;;;;;;;9.45;8.20;;;10.40;99.90;;;;;;2080964;28;20174;-65
2024/03/13 02:46:26;;;;;;;10.65;8.05;;;10.40;99.90;;;;;;2076735;28;20021;-64
2024/03/13 02:47:26;;;;;;;9.48;8.05;;;10.40;99.90;;;;;;2078966;28;20072;-64
2024/03/13 02:48:27;;;;;;;8.88;7.35;;;10.40;99.90;;;;;;2076564;28;20033;-64
2024/03/13 02:49:28;;;;;;;8.65;7.75;;;10.40;99.90;;;;;;2078210;28;20030;-63
2024/03/13 02:50:28;;;;;;;8.90;7.47;;;10.40;99.90;;;;;;2075573;28;20118;-64
2024/03/13 02:51:29;;;;;;;10.43;8.13;;;10.40;99.90;;;;;;2077051;28;21144;-63
2024/03/13 02:52:29;;;;;;;9.45;7.93;;;10.40;99.90;;;;;;2072803;28;20124;-63
2024/03/13 02:53:30;;;;;;;11.15;8.27;;;10.40;99.90;;;;;;2076983;28;20052;-64
2024/03/13 02:54:30;;;;;;;9.55;7.63;;;10.40;99.90;;;;;;2074845;28;20021;-64
2024/03/13 02:55:31;;;;;;;9.93;7.75;;;10.40;99.90;;;;;;2076914;28;20036;-65
2024/03/13 02:56:31;;;;;;;10.35;8.05;;;10.40;99.90;;;;;;2076213;28;20038;-64
2024/03/13 02:57:32;;;;;;;8.60;7.70;;;10.40;99.90;;;;;;2078153;28;20389;-64
2024/03/13 02:58:32;;;;;;;9.68;7.82;;;10.40;99.90;;;;;;2078337;28;20160;-64
2024/03/13 02:59:34;;;;;;;9.82;7.05;;;10.40;99.90;;;;;;2075783;28;20040;-64
2024/03/13 03:00:34;;;;;;;9.93;7.43;;;10.40;99.90;;;;;;2078701;28;20025;-64
2024/03/13 03:01:36;;;;;;;9.82;7.95;;;10.40;99.90;;;;;;2076915;28;20044;-64
2024/03/13 03:02:37;;;;;;;10.25;8.05;;;10.40;99.90;;;;;;2076083;28;20033;-64
2024/03/13 03:03:39;;;;;;;10.57;7.82;;;10.40;99.90;;;;;;2077870;28;20032;-63
2024/03/13 03:04:42;;;;;;;8.45;7.30;;;10.40;99.90;;;;;;2076568;28;20032;-64
2024/03/13 03:05:42;;;;;;;8.77;7.10;;;10.40;99.90;;;;;;2079767;28;20037;-63
2024/03/13 03:06:43;;;;;;;11.15;7.70;;;10.40;99.90;;;;;;2079010;28;20040;-64
2024/03/13 03:07:44;;;;;;;8.98;7.57;;;10.40;99.90;;;;;;2075271;28;20083;-65
2024/03/13 03:08:44;;;;;;;8.75;7.25;;;10.40;99.90;;;;;;2077572;28;20041;-64
2024/03/13 03:09:45;;;;;;;8.25;7.25;;;10.40;99.90;;;;;;2077288;28;20052;-64
2024/03/13 03:10:45;;;;;;;10.85;7.38;;;10.40;99.90;;;;;;2077344;28;20111;-64
2024/03/13 03:11:47;;;;;;;9.45;7.32;;;10.40;99.90;;;;;;2077799;28;20026;-64
2024/03/13 03:12:48;;;;;;;7.95;7.22;;;10.40;99.90;;;;;;2075783;28;20028;-64
2024/03/13 03:13:48;;;;;;;7.43;6.47;;;10.40;99.90;;;;;;2079350;28;20026;-64
2024/03/13 03:14:49;;;;;;;8.27;6.75;;;10.40;99.90;;;;;;2077855;28;20112;-64
2024/03/13 03:15:50;;;;;;;9.30;7.43;;;10.40;99.90;;;;;;2078444;28;20021;-64
2024/03/13 03:16:50;;;;;;;9.00;6.78;;;10.50;99.90;;;;;;2077839;28;20485;-64
2024/03/13 03:17:54;;;;;;;7.78;6.93;;;10.50;99.90;;;;;;2077771;28;20374;-64
2024/03/13 03:18:54;;;;;;;7.05;6.22;;;10.50;99.90;;;;;;2075889;28;20336;-64
2024/03/13 03:19:56;;;;;;;6.95;6.10;;;10.40;99.90;;;;;;2075586;28;20114;-65
2024/03/13 03:20:58;;;;;;;7.90;6.35;;;10.50;99.90;;;;;;2076805;28;20148;-65
2024/03/13 03:21:58;;;;;;;7.43;6.55;;;10.50;99.90;;;;;;2076803;28;20021;-64
2024/03/13 03:22:59;;;;;;;6.70;6.00;;;10.50;99.90;;;;;;2078494;28;20033;-64
2024/03/13 03:24:00;;;;;;;8.18;6.57;;;10.50;99.90;;;;;;2077127;28;20486;-64
2024/03/13 03:25:01;;;;;;;7.75;6.65;;;10.50;99.90;;;;;;2077385;28;20384;-64
2024/03/13 03:26:01;;;;;;;7.53;5.90;;;10.50;99.90;;;;;;2078086;28;20395;-64
2024/03/13 03:27:02;;;;;;;8.05;5.85;;;10.50;99.90;;;;;;2077353;28;20029;-64
2024/03/13 03:28:03;;;;;;;7.20;5.82;;;10.50;99.90;;;;;;2076822;28;20018;-64
2024/03/13 03:29:04;;;;;;;7.43;6.18;;;10.50;99.90;;;;;;2077702;28;20035;-64
2024/03/13 03:30:06;;;;;;;6.60;5.90;;;10.50;99.90;;;;;;2076445;28;20028;-64
2024/03/13 03:31:10;;;;;;;6.45;5.72;;;10.50;99.90;;;;;;2079286;28;20018;-64
2024/03/13 03:32:10;;;;;;;7.18;6.45;;;10.50;99.90;;;;;;2074613;28;22651;-64
2024/03/13 03:33:13;;;;;;;8.02;6.10;;;10.50;99.90;;;;;;2076785;28;20461;-64
2024/03/13 03:34:13;;;;;;;7.03;5.50;;;10.50;99.90;;;;;;2077074;28;20018;-64
2024/03/13 03:35:14;;;;;;;6.60;5.90;;;10.50;99.90;;;;;;2076390;28;20033;-63
2024/03/13 03:36:14;;;;;;;7.43;6.47;;;10.50;99.90;;;;;;2077062;28;20555;-64
2024/03/13 03:37:15;;;;;;;6.15;5.25;;;10.50;99.90;;;;;;2078928;28;20095;-64
2024/03/13 03:38:17;;;;;;;7.40;5.47;;;10.50;99.90;;;;;;2075901;28;20117;-64
2024/03/13 03:39:18;;;;;;;6.30;5.45;;;10.50;99.90;;;;;;2076093;28;20029;-64
2024/03/13 03:40:18;;;;;;;6.72;6.03;;;10.50;99.90;;;;;;2077935;28;20498;-65
2024/03/13 03:41:19;;;;;;;6.50;5.75;;;10.50;99.90;;;;;;2077476;28;20037;-64
2024/03/13 03:42:19;;;;;;;6.20;5.60;;;10.50;99.90;;;;;;2077395;28;20042;-64
2024/03/13 03:43:20;;;;;;;6.22;5.18;;;10.50;99.90;;;;;;2075321;28;20060;-64
2024/03/13 03:44:20;;;;;;;6.20;5.10;;;10.50;99.90;;;;;;2076814;28;20033;-64
2024/03/13 03:45:21;;;;;;;6.72;5.30;;;10.50;99.90;;;;;;2076706;28;20156;-66
2024/03/13 03:46:21;;;;;;;6.45;5.47;;;10.50;99.90;;;;;;2078165;28;20033;-63
2024/03/13 03:47:22;;;;;;;5.70;5.20;;;10.50;99.90;;;;;;2079103;28;20051;-69
2024/03/13 03:48:22;;;;;;;6.25;5.18;;;10.50;99.90;;;;;;2076065;28;20021;-69
2024/03/13 03:49:23;;;;;;;5.30;4.80;;;10.50;99.90;;;;;;2076750;28;20090;-69
2024/03/13 03:50:23;;;;;;;6.57;4.82;;;10.50;99.90;;;;;;2077670;28;20029;-72
2024/03/13 03:51:26;;;;;;;7.05;4.82;;;10.50;99.90;;;;;;2076320;28;20549;-71
2024/03/13 03:52:26;;;;;;;6.43;5.68;;;10.50;99.90;;;;;;2077651;28;20014;-70
2024/03/13 03:53:27;;;;;;;6.63;5.65;;;10.50;99.90;;;;;;2075353;28;20128;-70
2024/03/13 03:54:27;;;;;;;7.10;5.28;;;10.50;99.90;;;;;;2078245;28;20030;-70
2024/03/13 03:55:28;;;;;;;5.82;4.85;;;10.50;99.90;;;;;;2076847;28;20306;-69
2024/03/13 03:56:30;;;;;;;6.60;5.70;;;10.60;99.90;;;;;;2075950;28;20112;-70
2024/03/13 03:57:31;;;;;;;6.03;5.43;;;10.60;99.90;;;;;;2075484;28;20064;-70
2024/03/13 03:58:32;;;;;;;6.10;4.80;;;10.50;99.90;;;;;;2079072;28;20032;-69
2024/03/13 03:59:33;;;;;;;6.00;5.18;;;10.60;99.90;;;;;;2077964;28;20030;-69
2024/03/13 04:00:35;;;;;;;5.38;4.80;;;10.60;99.90;;;;;;2079019;28;20390;-70
2024/03/13 04:01:35;;;;;;;6.35;5.10;;;10.50;99.90;;;;;;2075726;28;20060;-69
2024/03/13 04:02:42;;;;;;;6.78;4.93;;;10.60;99.90;;;;;;2079553;28;20025;-70
2024/03/13 04:03:42;;;;;;;6.15;4.93;;;10.60;99.90;;;;;;2074006;28;20037;-69
2024/03/13 04:04:43;;;;;;;6.20;4.90;;;10.50;99.90;;;;;;2078227;28;20037;-69
2024/03/13 04:05:45;;;;;;;5.78;4.60;;;10.50;99.90;;;;;;2075332;28;20152;-69
2024/03/13 04:06:45;;;;;;;6.00;4.80;;;10.50;99.90;;;;;;2076854;28;20080;-70
2024/03/13 04:07:48;;;;;;;6.20;4.60;;;10.50;99.90;;;;;;2074945;28;20041;-70
2024/03/13 04:08:50;;;;;;;5.20;4.65;;;10.50;99.90;;;;;;2075036;28;20072;-69
2024/03/13 04:09:51;;;;;;;5.20;4.57;;;10.50;99.90;;;;;;2075989;28;20240;-70
2024/03/13 04:10:51;;;;;;;5.45;4.50;;;10.60;99.90;;;;;;2076911;28;20154;-71
2024/03/13 04:11:52;;;;;;;5.75;4.80;;;10.50;99.90;;;;;;2071257;28;20034;-70
2024/03/13 04:12:53;;;;;;;5.13;4.63;;;10.60;99.90;;;;;;2070909;28;20022;-68
2024/03/13 04:13:54;;;;;;;5.72;4.53;;;10.60;99.90;;;;;;2076785;28;20021;-70
2024/03/13 04:14:54;;;;;;;5.57;5.00;;;10.60;99.90;;;;;;2074896;28;20053;-69
2024/03/13 04:15:56;;;;;;;4.95;4.45;;;10.60;99.90;;;;;;2075588;28;20485;-68
2024/03/13 04:16:56;;;;;;;5.10;4.63;;;10.60;99.90;;;;;;2079191;28;20026;-69
2024/03/13 04:17:57;;;;;;;6.18;4.50;;;10.60;99.90;;;;;;2075188;28;20045;-70
2024/03/13 04:18:57;;;;;;;5.78;4.68;;;10.60;99.90;;;;;;2076262;28;20454;-70
2024/03/13 04:20:00;;;;;;;5.10;4.60;;;10.60;99.90;;;;;;2075528;28;20037;-70
2024/03/13 04:21:01;;;;;;;4.63;4.22;;;10.60;99.90;;;;;;2077432;28;20021;-70
2024/03/13 04:22:01;;;;;;;4.35;3.95;;;10.60;99.90;;;;;;2077822;28;20029;-69
2024/03/13 04:23:02;;;;;;;4.10;3.80;;;10.60;99.90;;;;;;2087688;28;20037;-69
2024/03/13 04:24:02;;;;;;;4.82;3.90;;;10.60;99.90;;;;;;2085093;28;20094;-68
2024/03/13 04:25:04;;;;;;;4.90;4.05;;;10.60;99.90;;;;;;2085049;28;20021;-70
2024/03/13 04:26:05;;;;;;;4.00;3.60;;;10.60;99.90;;;;;;2083303;28;20105;-69
2024/03/13 04:27:05;;;;;;;4.47;3.80;;;10.60;99.90;;;;;;2085703;28;20381;-70
2024/03/13 04:28:08;;;;;;;4.25;3.85;;;10.60;99.90;;;;;;2084180;28;20112;-70
2024/03/13 04:29:10;;;;;;;4.45;4.05;;;10.60;99.90;;;;;;2083214;28;20020;-69
2024/03/13 04:30:11;;;;;;;3.72;3.42;;;10.60;99.90;;;;;;2083218;28;20013;-70
2024/03/13 04:31:14;;;;;;;4.72;3.85;;;10.70;99.90;;;;;;2086667;28;20090;-70
2024/03/13 04:32:18;;;;;;;3.90;3.60;;;10.60;99.90;;;;;;2083471;28;20051;-70
2024/03/13 04:33:19;;;;;;;5.05;3.40;;;10.60;99.90;;;;;;2085281;28;20389;-70
2024/03/13 04:34:20;;;;;;;4.07;3.67;;;10.70;99.90;;;;;;2085974;28;20052;-70
2024/03/13 04:35:20;;;;;;;3.60;3.30;;;10.70;99.90;;;;;;2083690;28;20030;-70
2024/03/13 04:36:21;;;;;;;3.97;3.50;;;10.70;99.90;;;;;;2085580;28;20056;-70
2024/03/13 04:37:23;;;;;;;3.20;2.92;;;10.70;99.90;;;;;;2083716;28;20100;-69
2024/03/13 04:38:24;;;;;;;3.28;2.97;;;10.70;99.90;;;;;;2085209;28;20678;-70
2024/03/13 04:39:25;;;;;;;4.03;3.58;;;10.70;99.90;;;;;;2085808;28;20033;-69
2024/03/13 04:40:25;;;;;;;3.50;3.20;;;10.70;99.90;;;;;;2085106;28;20100;-70
2024/03/13 04:41:26;;;;;;;3.95;3.55;;;10.70;99.90;;;;;;2084597;28;20461;-70
2024/03/13 04:42:26;;;;;;;3.38;2.90;;;10.70;99.90;;;;;;2084269;28;20462;-70
2024/03/13 04:43:27;;;;;;;3.55;3.25;;;10.70;99.90;;;;;;2085979;28;20086;-69
2024/03/13 04:44:28;;;;;;;4.18;3.17;;;10.70;99.90;;;;;;2084928;28;20507;-71
2024/03/13 04:45:28;;;;;;;3.75;3.22;;;10.70;99.90;;;;;;2084615;28;20034;-70
2024/03/13 04:46:29;;;;;;;4.07;3.03;;;10.70;99.90;;;;;;2083173;28;20025;-69
2024/03/13 04:47:31;;;;;;;3.60;3.30;;;10.70;99.90;;;;;;2084836;28;20107;-69
2024/03/13 04:48:31;;;;;;;3.22;2.92;;;10.70;99.90;;;;;;2084476;28;20049;-70
2024/03/13 04:49:32;;;;;;;3.88;3.20;;;10.70;99.90;;;;;;2084727;28;20040;-69
2024/03/13 04:50:36;;;;;;;2.90;2.70;;;10.70;99.90;;;;;;2084144;28;20394;-69
2024/03/13 04:51:40;;;;;;;3.50;3.20;;;10.70;99.90;;;;;;2084672;28;20061;-69
2024/03/13 04:52:41;;;;;;;3.42;2.97;;;10.70;99.90;;;;;;2085754;28;20057;-69
2024/03/13 04:53:45;;;;;;;3.25;2.95;;;10.70;99.90;;;;;;2084798;28;20044;-69
2024/03/13 04:54:46;;;;;;;3.13;2.83;;;10.70;99.90;;;;;;2084884;28;20029;-69
2024/03/13 04:55:48;;;;;;;3.40;3.10;;;10.70;99.90;;;;;;2084575;28;20057;-68
2024/03/13 04:56:48;;;;;;;3.42;3.13;;;10.70;99.90;;;;;;2084057;28;20021;-69
2024/03/13 04:57:49;;;;;;;3.72;3.45;;;10.70;99.90;;;;;;2083395;28;20061;-69
2024/03/13 04:58:50;;;;;;;4.97;4.15;;;10.70;99.90;;;;;;2084197;28;20036;-72
2024/03/13 04:59:50;;;;;;;3.47;3.17;;;10.70;99.90;;;;;;2084076;28;20481;-72
2024/03/13 05:00:51;;;;;;;3.40;3.20;;;10.70;99.90;;;;;;2084950;28;20037;-69
2024/03/13 05:01:52;;;;;;;2.90;2.70;;;10.80;99.90;;;;;;2083716;28;20032;-69
2024/03/13 05:02:53;;;;;;;3.70;2.95;;;10.80;99.90;;;;;;2086202;28;20029;-69
2024/03/13 05:03:54;;;;;;;3.25;2.95;;;10.70;99.90;;;;;;2083205;28;20024;-69
2024/03/13 05:04:54;;;;;;;5.32;2.60;;;10.80;99.90;;;;;;2084597;28;20044;-69
2024/03/13 05:05:55;;;;;;;3.15;2.88;;;10.80;99.90;;;;;;2083421;28;20028;-69
2024/03/13 05:07:01;;;;;;;2.78;2.58;;;10.80;99.90;;;;;;2084176;28;20030;-69
2024/03/13 05:08:02;;;;;;;2.90;2.70;;;10.80;99.90;;;;;;2083188;28;20079;-69
2024/03/13 05:09:03;;;;;;;3.55;2.78;;;10.80;99.90;;;;;;2085880;28;20074;-71
2024/03/13 05:10:06;;;;;;;3.08;2.72;;;10.80;99.90;;;;;;2084133;28;20033;-71
2024/03/13 05:11:09;;;;;;;2.65;2.45;;;10.80;99.90;;;;;;2084245;28;20177;-71
2024/03/13 05:12:10;;;;;;;2.95;2.58;;;10.80;99.90;;;;;;2083539;28;20056;-71
2024/03/13 05:13:10;;;;;;;3.55;2.72;;;10.80;99.90;;;;;;2085317;28;20014;-71
2024/03/13 05:14:11;;;;;;;2.85;2.65;;;10.80;99.90;;;;;;2083949;28;20385;-71
2024/03/13 05:15:12;;;;;;;2.47;2.28;;;10.80;99.90;;;;;;2085150;28;20045;-72
2024/03/13 05:16:13;;;;;;;2.40;2.20;;;10.80;99.90;;;;;;2084362;28;20025;-71
2024/03/13 05:17:15;;;;;;;2.70;2.50;;;10.80;99.90;;;;;;2081926;28;20029;-70
2024/03/13 05:18:17;;;;;;;3.05;2.67;;;10.80;99.90;;;;;;2084472;28;20112;-71
2024/03/13 05:19:18;;;;;;;2.28;2.17;;;10.90;99.90;;;;;;2084235;28;20051;-71
2024/03/13 05:20:19;;;;;;;3.03;2.72;;;10.90;99.90;;;;;;2084729;28;20099;-69
2024/03/13 05:21:19;;;;;;;2.72;2.53;;;10.90;99.90;;;;;;2083645;28;20038;-71
2024/03/13 05:22:20;;;;;;;3.10;2.58;;;10.90;99.90;;;;;;2082490;28;20136;-71
2024/03/13 05:23:20;;;;;;;2.40;2.20;;;10.90;99.90;;;;;;2077378;28;20033;-71
2024/03/13 05:24:21;;;;;;;2.60;2.40;;;10.90;99.90;;;;;;2077569;28;20068;-71
2024/03/13 05:25:24;;;;;;;3.22;2.92;;;10.90;99.90;;;;;;2077431;28;20429;-71
2024/03/13 05:26:27;;;;;;;2.70;2.42;;;10.90;99.90;;;;;;2077255;28;20529;-71
2024/03/13 05:27:27;;;;;;;2.67;2.47;;;10.90;99.90;;;;;;2074854;28;20025;-71
2024/03/13 05:28:29;;;;;;;3.35;2.67;;;10.90;99.90;;;;;;2076375;28;20505;-70
2024/03/13 05:29:30;;;;;;;2.70;2.45;;;10.90;99.90;;;;;;2077156;28;20177;-71
2024/03/13 05:30:31;;;;;;;2.53;2.33;;;10.90;99.90;;;;;;2073874;28;20494;-70
2024/03/13 05:31:31;;;;;;;4.05;2.33;;;10.90;99.90;;;;;;2076294;28;20036;-71
2024/03/13 05:32:32;;;;;;;3.00;2.70;;;10.90;99.90;;;;;;2076088;28;20070;-71
2024/03/13 05:33:32;;;;;;;2.65;2.45;;;10.90;99.90;;;;;;2076725;28;20069;-70
2024/03/13 05:34:33;;;;;;;2.70;2.50;;;10.90;99.90;;;;;;2075664;28;20064;-72